Wotan — V2CA5 — position and weather

sailwx.info

Track history (hours):
 
Tides and Currents Weather Stations Pressure Air Temp Water Temp Dewpoint Dewpoint Depression Visibility Wind Speed Wind Dir Waves Ship Positions

Wotan

Last reported at 2014-Oct-24 12:06 UTC. Time now 2014-Oct-24 13:33 UTC.
Position N 54°52' W 005°32'.

Length 100 m; draft 4.1 m.

Type: Cargo ship. MMSI: 304195000.

Date/timePositionNaut miles runAvg speedWind from/ knotsBaromVisibWave heightAir tempDewpointWater temp
2014-Oct-24 12:06N 54°52' W 005°32'611.6
2014-Oct-24 11:34N 54°46' W 005°29'1111.5
2014-Oct-24 10:33N 54°35' W 005°24'1010.4
2014-Oct-24 09:33N 54°25' W 005°20'1010.2
2014-Oct-24 08:33N 54°15' W 005°22'117 9.7
2014-Oct-23 20:32N 52°19' W 005°51'2311.6
2014-Oct-23 18:34N 52°02' W 006°15'1211.6
2014-Oct-23 17:34N 52°01' W 006°34'1111.1
2014-Oct-23 16:33N 52°04' W 006°51'7 7.3
2014-Oct-23 15:34N 52°10' W 006°57'6 6.4
2014-Oct-23 14:34N 52°16' W 007°01'0 0.2
2014-Oct-23 12:34N 52°16' W 007°02'0 0.0
2014-Oct-23 11:34N 52°16' W 007°02'0 0.0
2014-Oct-23 10:34N 52°16' W 007°02'0 0.0
2014-Oct-23 09:25N 52°16' W 007°02'0 0.0
2014-Oct-23 08:34N 52°16' W 007°02'0 0.0
2014-Oct-23 07:30N 52°16' W 007°02'0 0.0
2014-Oct-23 06:24N 52°16' W 007°02'0 0.0
2014-Oct-23 05:34N 52°16' W 007°02'0 0.0
2014-Oct-23 04:34N 52°16' W 007°02'0 0.0
2014-Oct-23 03:33N 52°16' W 007°02'0 0.0
2014-Oct-23 02:34N 52°16' W 007°02'0 0.0
2014-Oct-23 01:34N 52°16' W 007°02'0 0.0
2014-Oct-23 00:34N 52°16' W 007°02'0 0.0
2014-Oct-22 23:34N 52°16' W 007°02'0 0.0
2014-Oct-22 22:34N 52°16' W 007°02'0 0.0
2014-Oct-22 21:22N 52°16' W 007°02'0 0.0
2014-Oct-22 20:34N 52°16' W 007°02'0 0.0
2014-Oct-22 19:16N 52°16' W 007°02'0 0.0
2014-Oct-22 18:33N 52°16' W 007°02'0 0.0
2014-Oct-22 17:30N 52°16' W 007°02'0 0.0
2014-Oct-22 16:28N 52°16' W 007°02'0 0.0
2014-Oct-22 15:34N 52°16' W 007°02'0 0.0
2014-Oct-22 14:34N 52°16' W 007°02'0 0.0
2014-Oct-22 13:27N 52°16' W 007°02'0 0.0
2014-Oct-22 12:33N 52°16' W 007°02'0 0.0
2014-Oct-22 11:33N 52°16' W 007°02'0 0.0
2014-Oct-22 10:33N 52°16' W 007°02'0 0.0
2014-Oct-22 09:31N 52°16' W 007°02'0 0.0
2014-Oct-22 08:33N 52°16' W 007°02'0 0.0
2014-Oct-22 07:27N 52°16' W 007°02'0 0.0
2014-Oct-22 06:34N 52°16' W 007°02'0 0.0
2014-Oct-22 05:34N 52°16' W 007°02'0 0.0
2014-Oct-22 04:34N 52°16' W 007°02'0 0.0
2014-Oct-22 03:34N 52°16' W 007°02'0 0.0
2014-Oct-22 02:28N 52°16' W 007°02'0 0.0
2014-Oct-22 01:34N 52°16' W 007°02'0 0.0
2014-Oct-22 00:34N 52°16' W 007°02'0 0.0
2014-Oct-21 23:34N 52°16' W 007°02'0 0.0
2014-Oct-21 22:33N 52°16' W 007°02'0 0.0
2014-Oct-21 21:25N 52°16' W 007°02'0 0.0
2014-Oct-21 20:25N 52°16' W 007°02'0 0.0
2014-Oct-21 19:27N 52°16' W 007°02'0 0.0
2014-Oct-21 18:31N 52°16' W 007°02'0 0.3
2014-Oct-21 17:33N 52°16' W 007°01'7 6.5
2014-Oct-21 16:33N 52°10' W 006°56'8 8.1
2014-Oct-21 15:33N 52°02' W 006°55'8 8.3
2014-Oct-21 14:33N 51°54' W 006°51'8 8.0
2014-Oct-21 13:33N 51°46' W 006°51'162 6.2
2014-Oct-20 11:33N 50°05' W 003°31'1110.8
2014-Oct-20 10:33N 50°08' W 003°14'1110.6
2014-Oct-20 09:33N 50°10' W 002°58'1010.1
2014-Oct-20 08:33N 50°12' W 002°42'9 9.0
2014-Oct-20 07:31N 50°14' W 002°28'143 7.8
2014-Oct-19 13:12N 50°54' E 001°07'6 8.9
2014-Oct-19 12:33N 50°57' E 001°15'8 8.4
2014-Oct-19 11:33N 51°03' E 001°25'8 7.6
2014-Oct-19 10:33N 51°08' E 001°34'7 7.1
2014-Oct-19 09:33N 51°12' E 001°42'7 7.4
2014-Oct-19 08:33N 51°18' E 001°50'8 8.3
2014-Oct-19 07:33N 51°25' E 001°57'9 9.5
2014-Oct-19 06:33N 51°33' E 002°06'1110.6
2014-Oct-19 05:33N 51°41' E 002°17'1110.9
2014-Oct-19 04:32N 51°50' E 002°28'128 9.1
2014-Oct-18 14:33N 53°29' E 004°41'9 8.2
2014-Oct-18 13:31N 53°32' E 004°54'8 8.3
2014-Oct-18 12:33N 53°34' E 005°07'9 8.7
2014-Oct-18 11:33N 53°37' E 005°21'9 9.3
2014-Oct-18 10:33N 53°40' E 005°36'1010.0
2014-Oct-18 09:34N 53°43' E 005°52'1010.3
2014-Oct-18 08:33N 53°47' E 006°08'50 9.6
2014-Oct-18 03:24N 53°60' E 007°30'8 9.0
2014-Oct-18 02:34N 54°01' E 007°42'9 9.4
2014-Oct-18 01:34N 54°01' E 007°58'10 9.8
2014-Oct-18 00:33N 54°00' E 008°15'1111.2
2014-Oct-17 23:34N 53°58' E 008°33'1212.3
2014-Oct-17 22:33N 53°50' E 008°50'1211.5
2014-Oct-17 21:33N 53°53' E 009°09'9 8.9
2014-Oct-17 20:34N 53°49' E 009°22'9 8.7
2014-Oct-17 19:33N 53°41' E 009°30'8 7.8
2014-Oct-17 18:34N 53°35' E 009°37'7 6.8
2014-Oct-17 17:34N 53°33' E 009°49'6 6.4
2014-Oct-17 16:33N 53°30' E 009°58'1 0.7
2014-Oct-17 15:32N 53°30' E 009°59'0 0.0
2014-Oct-17 14:32N 53°30' E 009°59'0 0.0
2014-Oct-17 13:32N 53°30' E 009°59'0 0.0
2014-Oct-17 12:32N 53°30' E 009°59'0 0.0
2014-Oct-17 11:32N 53°30' E 009°59'0 0.0
2014-Oct-17 10:32N 53°30' E 009°59'0 0.0
2014-Oct-17 09:32N 53°30' E 009°59'0 0.0
2014-Oct-17 08:29N 53°30' E 009°59'0 0.0
2014-Oct-17 07:32N 53°30' E 009°59'0 0.0
2014-Oct-17 06:30N 53°30' E 009°59'0 0.0
2014-Oct-17 05:32N 53°30' E 009°59'0 0.0
2014-Oct-17 04:32N 53°30' E 009°59'0 0.0
2014-Oct-17 03:32N 53°30' E 009°59'0 0.0
2014-Oct-17 02:32N 53°30' E 009°59'0 0.0
2014-Oct-17 01:32N 53°30' E 009°59'0 0.0
2014-Oct-17 00:32N 53°30' E 009°59'2 1.9
2014-Oct-16 23:33N 53°31' E 009°57'7 7.4
2014-Oct-16 22:33N 53°34' E 009°45'8 7.9
2014-Oct-16 21:33N 53°37' E 009°33'8 8.3
2014-Oct-16 20:33N 53°44' E 009°26'1010.4
2014-Oct-16 19:33N 53°52' E 009°15'1111.4
2014-Oct-16 18:33N 53°51' E 008°56'1111.0
2014-Oct-16 17:33N 53°56' E 008°39'1111.5
2014-Oct-16 16:33N 53°59' E 008°21'1110.6
2014-Oct-16 15:33N 53°59' E 008°03'1010.1
2014-Oct-16 14:32N 53°57' E 007°46'1010.4
2014-Oct-16 13:33N 53°54' E 007°29'4611.5
2014-Oct-16 09:33N 53°43' E 006°13'1110.6
2014-Oct-16 08:33N 53°39' E 005°56'1010.2
2014-Oct-16 07:33N 53°36' E 005°40'10 9.9
2014-Oct-16 06:33N 53°33' E 005°24'10 9.7
2014-Oct-16 05:33N 53°30' E 005°09'10 9.9
2014-Oct-16 04:33N 53°27' E 004°53'10 9.9
2014-Oct-16 03:33N 53°24' E 004°37'2110.3
2014-Oct-16 01:32N 53°20' E 004°03'  
Track history (hours):
 
Tides and Currents Weather Stations Pressure Air Temp Water Temp Dewpoint Dewpoint Depression Visibility Wind Speed Wind Dir Waves Ship Positions

Wotan

Last reported at 2014-Oct-24 12:06 UTC. Time now 2014-Oct-24 13:33 UTC.
Position N 54°52' W 005°32'.

Length 100 m; draft 4.1 m.

Type: Cargo ship. MMSI: 304195000.

Date/timePositionNaut miles runAvg speedWind from/ knotsBaromVisibWave heightAir tempDewpointWater temp
2014-Oct-24 12:06N 54°52' W 005°32'611.6
2014-Oct-24 11:34N 54°46' W 005°29'1111.5
2014-Oct-24 10:33N 54°35' W 005°24'1010.4
2014-Oct-24 09:33N 54°25' W 005°20'1010.2
2014-Oct-24 08:33N 54°15' W 005°22'117 9.7
2014-Oct-23 20:32N 52°19' W 005°51'2311.6
2014-Oct-23 18:34N 52°02' W 006°15'1211.6
2014-Oct-23 17:34N 52°01' W 006°34'1111.1
2014-Oct-23 16:33N 52°04' W 006°51'7 7.3
2014-Oct-23 15:34N 52°10' W 006°57'6 6.4
2014-Oct-23 14:34N 52°16' W 007°01'0 0.2
2014-Oct-23 12:34N 52°16' W 007°02'0 0.0
2014-Oct-23 11:34N 52°16' W 007°02'0 0.0
2014-Oct-23 10:34N 52°16' W 007°02'0 0.0
2014-Oct-23 09:25N 52°16' W 007°02'0 0.0
2014-Oct-23 08:34N 52°16' W 007°02'0 0.0
2014-Oct-23 07:30N 52°16' W 007°02'0 0.0
2014-Oct-23 06:24N 52°16' W 007°02'0 0.0
2014-Oct-23 05:34N 52°16' W 007°02'0 0.0
2014-Oct-23 04:34N 52°16' W 007°02'0 0.0
2014-Oct-23 03:33N 52°16' W 007°02'0 0.0
2014-Oct-23 02:34N 52°16' W 007°02'0 0.0
2014-Oct-23 01:34N 52°16' W 007°02'0 0.0
2014-Oct-23 00:34N 52°16' W 007°02'0 0.0
2014-Oct-22 23:34N 52°16' W 007°02'0 0.0
2014-Oct-22 22:34N 52°16' W 007°02'0 0.0
2014-Oct-22 21:22N 52°16' W 007°02'0 0.0
2014-Oct-22 20:34N 52°16' W 007°02'0 0.0
2014-Oct-22 19:16N 52°16' W 007°02'0 0.0
2014-Oct-22 18:33N 52°16' W 007°02'0 0.0
2014-Oct-22 17:30N 52°16' W 007°02'0 0.0
2014-Oct-22 16:28N 52°16' W 007°02'0 0.0
2014-Oct-22 15:34N 52°16' W 007°02'0 0.0
2014-Oct-22 14:34N 52°16' W 007°02'0 0.0
2014-Oct-22 13:27N 52°16' W 007°02'0 0.0
2014-Oct-22 12:33N 52°16' W 007°02'0 0.0
2014-Oct-22 11:33N 52°16' W 007°02'0 0.0
2014-Oct-22 10:33N 52°16' W 007°02'0 0.0
2014-Oct-22 09:31N 52°16' W 007°02'0 0.0
2014-Oct-22 08:33N 52°16' W 007°02'0 0.0
2014-Oct-22 07:27N 52°16' W 007°02'0 0.0
2014-Oct-22 06:34N 52°16' W 007°02'0 0.0
2014-Oct-22 05:34N 52°16' W 007°02'0 0.0
2014-Oct-22 04:34N 52°16' W 007°02'0 0.0
2014-Oct-22 03:34N 52°16' W 007°02'0 0.0
2014-Oct-22 02:28N 52°16' W 007°02'0 0.0
2014-Oct-22 01:34N 52°16' W 007°02'0 0.0
2014-Oct-22 00:34N 52°16' W 007°02'0 0.0
2014-Oct-21 23:34N 52°16' W 007°02'0 0.0
2014-Oct-21 22:33N 52°16' W 007°02'0 0.0
2014-Oct-21 21:25N 52°16' W 007°02'0 0.0
2014-Oct-21 20:25N 52°16' W 007°02'0 0.0
2014-Oct-21 19:27N 52°16' W 007°02'0 0.0
2014-Oct-21 18:31N 52°16' W 007°02'0 0.3
2014-Oct-21 17:33N 52°16' W 007°01'7 6.5
2014-Oct-21 16:33N 52°10' W 006°56'8 8.1
2014-Oct-21 15:33N 52°02' W 006°55'8 8.3
2014-Oct-21 14:33N 51°54' W 006°51'8 8.0
2014-Oct-21 13:33N 51°46' W 006°51'162 6.2
2014-Oct-20 11:33N 50°05' W 003°31'1110.8
2014-Oct-20 10:33N 50°08' W 003°14'1110.6
2014-Oct-20 09:33N 50°10' W 002°58'1010.1
2014-Oct-20 08:33N 50°12' W 002°42'9 9.0
2014-Oct-20 07:31N 50°14' W 002°28'143 7.8
2014-Oct-19 13:12N 50°54' E 001°07'6 8.9
2014-Oct-19 12:33N 50°57' E 001°15'8 8.4
2014-Oct-19 11:33N 51°03' E 001°25'8 7.6
2014-Oct-19 10:33N 51°08' E 001°34'7 7.1
2014-Oct-19 09:33N 51°12' E 001°42'7 7.4
2014-Oct-19 08:33N 51°18' E 001°50'8 8.3
2014-Oct-19 07:33N 51°25' E 001°57'9 9.5
2014-Oct-19 06:33N 51°33' E 002°06'1110.6
2014-Oct-19 05:33N 51°41' E 002°17'1110.9
2014-Oct-19 04:32N 51°50' E 002°28'128 9.1
2014-Oct-18 14:33N 53°29' E 004°41'9 8.2
2014-Oct-18 13:31N 53°32' E 004°54'8 8.3
2014-Oct-18 12:33N 53°34' E 005°07'9 8.7
2014-Oct-18 11:33N 53°37' E 005°21'9 9.3
2014-Oct-18 10:33N 53°40' E 005°36'1010.0
2014-Oct-18 09:34N 53°43' E 005°52'1010.3
2014-Oct-18 08:33N 53°47' E 006°08'50 9.6
2014-Oct-18 03:24N 53°60' E 007°30'8 9.0
2014-Oct-18 02:34N 54°01' E 007°42'9 9.4
2014-Oct-18 01:34N 54°01' E 007°58'10 9.8
2014-Oct-18 00:33N 54°00' E 008°15'1111.2
2014-Oct-17 23:34N 53°58' E 008°33'1212.3
2014-Oct-17 22:33N 53°50' E 008°50'1211.5
2014-Oct-17 21:33N 53°53' E 009°09'9 8.9
2014-Oct-17 20:34N 53°49' E 009°22'9 8.7
2014-Oct-17 19:33N 53°41' E 009°30'8 7.8
2014-Oct-17 18:34N 53°35' E 009°37'7 6.8
2014-Oct-17 17:34N 53°33' E 009°49'6 6.4
2014-Oct-17 16:33N 53°30' E 009°58'1 0.7
2014-Oct-17 15:32N 53°30' E 009°59'0 0.0
2014-Oct-17 14:32N 53°30' E 009°59'0 0.0
2014-Oct-17 13:32N 53°30' E 009°59'0 0.0
2014-Oct-17 12:32N 53°30' E 009°59'0 0.0
2014-Oct-17 11:32N 53°30' E 009°59'0 0.0
2014-Oct-17 10:32N 53°30' E 009°59'0 0.0
2014-Oct-17 09:32N 53°30' E 009°59'0 0.0
2014-Oct-17 08:29N 53°30' E 009°59'0 0.0
2014-Oct-17 07:32N 53°30' E 009°59'0 0.0
2014-Oct-17 06:30N 53°30' E 009°59'0 0.0
2014-Oct-17 05:32N 53°30' E 009°59'0 0.0
2014-Oct-17 04:32N 53°30' E 009°59'0 0.0
2014-Oct-17 03:32N 53°30' E 009°59'0 0.0
2014-Oct-17 02:32N 53°30' E 009°59'0 0.0
2014-Oct-17 01:32N 53°30' E 009°59'0 0.0
2014-Oct-17 00:32N 53°30' E 009°59'2 1.9
2014-Oct-16 23:33N 53°31' E 009°57'7 7.4
2014-Oct-16 22:33N 53°34' E 009°45'8 7.9
2014-Oct-16 21:33N 53°37' E 009°33'8 8.3
2014-Oct-16 20:33N 53°44' E 009°26'1010.4
2014-Oct-16 19:33N 53°52' E 009°15'1111.4
2014-Oct-16 18:33N 53°51' E 008°56'1111.0
2014-Oct-16 17:33N 53°56' E 008°39'1111.5
2014-Oct-16 16:33N 53°59' E 008°21'1110.6
2014-Oct-16 15:33N 53°59' E 008°03'1010.1
2014-Oct-16 14:32N 53°57' E 007°46'1010.4
2014-Oct-16 13:33N 53°54' E 007°29'4611.5
2014-Oct-16 09:33N 53°43' E 006°13'1110.6
2014-Oct-16 08:33N 53°39' E 005°56'1010.2
2014-Oct-16 07:33N 53°36' E 005°40'10 9.9
2014-Oct-16 06:33N 53°33' E 005°24'10 9.7
2014-Oct-16 05:33N 53°30' E 005°09'10 9.9
2014-Oct-16 04:33N 53°27' E 004°53'10 9.9
2014-Oct-16 03:33N 53°24' E 004°37'2110.3
2014-Oct-16 01:32N 53°20' E 004°03'  

Dump ship's entire track history